MTN8109 TJSJ-TAPA
Flight info
| Callsign | MTN8109 |
|---|---|
| Flight time | N/A |
| Altitude | 11000 |
| Route | SJU RTE2 COY G633 ANU |
| Aircraft | C408/M-SDFGRY/S |
Departure
| Time | 2026-04-30 14:12 |
|---|---|
| Airport | Luis Munoz Marin International Airport (TJSJ) |
Arrival
| Time | N/A |
|---|---|
| Airport | V. C. Bird International Airport (TAPA) |
| Time | Latitude | Longitude | Altitude | Speed | Heading |
|---|---|---|---|---|---|
| 2026-04-30 13:34 | 18.43633 | -65.99824 | -27 ft | 0 kts | 360° |
| 2026-04-30 14:05 | 18.43642 | -65.99842 | -31 ft | 7 kts | 243° |
| 2026-04-30 14:05 | 18.43584 | -65.99878 | -34 ft | 12 kts | 207° |
| 2026-04-30 14:05 | 18.43534 | -65.99916 | -27 ft | 6 kts | 195° |
| 2026-04-30 14:05 | 18.43478 | -65.99918 | -33 ft | 6 kts | 206° |
| 2026-04-30 14:06 | 18.43467 | -65.99953 | -37 ft | 9 kts | 264° |
| 2026-04-30 14:06 | 18.43467 | -66.00177 | -35 ft | 12 kts | 269° |
| 2026-04-30 14:07 | 18.43468 | -66.00382 | -33 ft | 12 kts | 269° |
| 2026-04-30 14:07 | 18.43467 | -66.00481 | -32 ft | 9 kts | 270° |
| 2026-04-30 14:07 | 18.43468 | -66.00560 | -31 ft | 14 kts | 270° |
| 2026-04-30 14:08 | 18.43467 | -66.00765 | -31 ft | 13 kts | 270° |
| 2026-04-30 14:08 | 18.43467 | -66.00851 | -31 ft | 13 kts | 270° |
| 2026-04-30 14:08 | 18.43467 | -66.01084 | -33 ft | 14 kts | 271° |
| 2026-04-30 14:09 | 18.43467 | -66.01184 | -35 ft | 11 kts | 271° |
| 2026-04-30 14:09 | 18.43488 | -66.01219 | -36 ft | 4 kts | 355° |
| 2026-04-30 14:09 | 18.43547 | -66.01245 | -48 ft | 11 kts | 288° |
| 2026-04-30 14:10 | 18.43550 | -66.01317 | -34 ft | 12 kts | 271° |
| 2026-04-30 14:10 | 18.43593 | -66.01359 | -33 ft | 10 kts | 2° |
| 2026-04-30 14:10 | 18.43677 | -66.01359 | -33 ft | 10 kts | 359° |
| 2026-04-30 14:10 | 18.43741 | -66.01360 | -42 ft | 13 kts | 359° |
| 2026-04-30 14:11 | 18.43807 | -66.01360 | -51 ft | 0 kts | 356° |
| 2026-04-30 14:11 | 18.43833 | -66.01364 | -43 ft | 8 kts | 343° |
| 2026-04-30 14:11 | 18.43907 | -66.01393 | -44 ft | 12 kts | 1° |
| 2026-04-30 14:11 | 18.43943 | -66.01321 | -45 ft | 15 kts | 69° |
| 2026-04-30 14:12 | 18.44036 | -66.01090 | -41 ft | 68 kts | 68° |
| 2026-04-30 14:12 | 18.44291 | -66.00430 | 36 ft | 119 kts | 71° |
| 2026-04-30 14:12 | 18.44647 | -65.99589 | 486 ft | 131 kts | 65° |
| 2026-04-30 14:12 | 18.44929 | -65.99016 | 833 ft | 133 kts | 64° |
| 2026-04-30 14:13 | 18.45469 | -65.97863 | 1602 ft | 131 kts | 68° |
| 2026-04-30 14:13 | 18.45852 | -65.96990 | 2153 ft | 132 kts | 68° |
| 2026-04-30 14:13 | 18.46262 | -65.96097 | 2647 ft | 139 kts | 66° |
| 2026-04-30 14:13 | 18.46696 | -65.95220 | 3264 ft | 132 kts | 66° |
| 2026-04-30 14:14 | 18.47118 | -65.94366 | 3788 ft | 121 kts | 67° |
| 2026-04-30 14:14 | 18.47443 | -65.93736 | 3716 ft | 97 kts | 66° |
| 2026-04-30 14:14 | 18.47802 | -65.93021 | 3364 ft | 111 kts | 68° |
| 2026-04-30 14:14 | 18.47954 | -65.92325 | 3273 ft | 94 kts | 99° |
| 2026-04-30 14:15 | 18.47646 | -65.91722 | 3058 ft | 96 kts | 137° |
| 2026-04-30 14:15 | 18.47044 | -65.91477 | 2896 ft | 98 kts | 175° |
| 2026-04-30 14:15 | 18.46357 | -65.91696 | 2621 ft | 107 kts | 211° |
| 2026-04-30 14:15 | 18.46015 | -65.92061 | 2520 ft | 106 kts | 233° |
| 2026-04-30 14:16 | 18.45576 | -65.92768 | 2432 ft | 123 kts | 227° |
| 2026-04-30 14:16 | 18.45008 | -65.93451 | 2274 ft | 138 kts | 217° |
| 2026-04-30 14:16 | 18.44128 | -65.94115 | 1878 ft | 161 kts | 207° |
| 2026-04-30 14:16 | 18.43188 | -65.94628 | 1993 ft | 159 kts | 206° |
| 2026-04-30 14:17 | 18.43633 | -65.99824 | 1993 ft | 0 kts | 0° |